Time;durP1;ratioP1;P1;durP2;ratioP2;P2;SDS_P1;SDS_P2;PMS_P1;PMS_P2;Temp;Humidity;BMP_temperature;BMP_pressure;BME280_temperature;BME280_humidity;BME280_pressure;Samples;Min_cycle;Max_cycle;Signal;HPM_P1;HPM_P2
2021/08/17 00:02:25;;;;;;;22.27;4.10;;;14.30;99.90;;;;;;5025121;28;20045;-80
2021/08/17 00:04:51;;;;;;;30.30;4.38;;;14.30;99.90;;;;;;5039769;28;20033;-80
2021/08/17 00:07:18;;;;;;;26.98;4.28;;;14.30;99.90;;;;;;5040622;28;20033;-80
2021/08/17 00:09:44;;;;;;;18.25;4.20;;;14.20;99.90;;;;;;5039621;28;20041;-79
2021/08/17 00:12:10;;;;;;;30.42;4.10;;;14.30;99.90;;;;;;5041613;28;20539;-80
2021/08/17 00:14:36;;;;;;;26.08;4.60;;;14.30;99.90;;;;;;5041271;28;20389;-80
2021/08/17 00:17:03;;;;;;;27.55;4.68;;;14.20;99.90;;;;;;5037229;28;20041;-80
2021/08/17 00:19:47;;;;;;;21.20;4.53;;;14.20;99.90;;;;;;5055221;28;20464;-80
2021/08/17 00:22:14;;;;;;;26.80;4.32;;;14.30;99.90;;;;;;5040783;28;20043;-80
2021/08/17 00:24:40;;;;;;;25.25;3.80;;;14.20;99.90;;;;;;5039129;28;20048;-80
2021/08/17 00:27:06;;;;;;;18.90;3.50;;;14.30;99.90;;;;;;5056499;28;20488;-80
2021/08/17 00:29:32;;;;;;;29.67;4.10;;;14.30;99.90;;;;;;5038584;28;20061;-79
2021/08/17 00:31:57;;;;;;;25.58;3.53;;;14.30;99.90;;;;;;5038675;28;20056;-80
2021/08/17 00:34:23;;;;;;;22.35;4.07;;;14.40;99.90;;;;;;5041249;28;20045;-80
2021/08/17 00:36:50;;;;;;;25.85;4.22;;;14.40;99.90;;;;;;5055038;28;20044;-81
2021/08/17 00:39:16;;;;;;;27.35;4.05;;;14.30;99.90;;;;;;5042610;28;20443;-80
2021/08/17 00:41:42;;;;;;;23.63;4.20;;;14.30;99.90;;;;;;5038826;28;20042;-81
2021/08/17 00:44:25;;;;;;;18.92;3.53;;;14.40;99.90;;;;;;5039730;28;20407;-80
2021/08/17 00:46:57;;;;;;;16.88;4.13;;;14.30;99.90;;;;;;5040023;28;20045;-80
2021/08/17 00:49:24;;;;;;;23.65;3.60;;;14.40;99.90;;;;;;5039799;28;20449;-80
2021/08/17 00:51:54;;;;;;;20.90;3.78;;;14.40;99.90;;;;;;5042177;28;20037;-80
2021/08/17 00:54:23;;;;;;;24.83;3.80;;;14.30;99.90;;;;;;5038629;28;20048;-80
2021/08/17 00:56:49;;;;;;;15.60;3.13;;;14.40;99.90;;;;;;5046306;28;20539;-80
2021/08/17 00:59:15;;;;;;;22.73;3.97;;;14.40;99.90;;;;;;5038114;28;20147;-80
2021/08/17 01:01:41;;;;;;;18.80;3.05;;;14.40;99.90;;;;;;5041968;28;20037;-80
2021/08/17 01:04:10;;;;;;;15.95;3.15;;;14.30;99.90;;;;;;5040749;28;20072;-80
2021/08/17 01:06:37;;;;;;;15.32;2.90;;;14.30;99.90;;;;;;5046844;28;20044;-80
2021/08/17 01:09:09;;;;;;;17.60;2.80;;;14.30;99.90;;;;;;5059065;28;20493;-80
2021/08/17 01:11:36;;;;;;;19.35;3.15;;;14.30;99.90;;;;;;5044274;28;20044;-80
2021/08/17 01:14:02;;;;;;;19.60;3.35;;;14.30;99.90;;;;;;5045109;28;20239;-80
2021/08/17 01:16:28;;;;;;;17.55;3.22;;;14.30;99.90;;;;;;5040933;28;20254;-79
2021/08/17 01:18:54;;;;;;;18.02;3.42;;;14.20;99.90;;;;;;5042585;28;20041;-80
2021/08/17 01:21:21;;;;;;;13.98;3.30;;;14.20;99.90;;;;;;5042171;28;20037;-80
2021/08/17 01:23:47;;;;;;;21.73;3.33;;;14.00;99.90;;;;;;5042157;28;20113;-80
2021/08/17 01:26:12;;;;;;;17.48;3.13;;;13.90;99.90;;;;;;5040405;28;20120;-79
2021/08/17 01:28:38;;;;;;;18.17;2.83;;;14.00;99.90;;;;;;5058679;28;20152;-80
2021/08/17 01:31:07;;;;;;;17.80;3.38;;;13.90;99.90;;;;;;5042798;28;20049;-80
2021/08/17 01:33:34;;;;;;;14.10;2.90;;;13.80;99.90;;;;;;5041183;28;20045;-80
2021/08/17 01:36:01;;;;;;;18.80;2.97;;;13.80;99.90;;;;;;5042745;28;20049;-80
2021/08/17 01:38:27;;;;;;;22.35;3.70;;;13.80;99.90;;;;;;5060256;28;20473;-80
2021/08/17 01:40:53;;;;;;;23.77;3.33;;;13.80;99.90;;;;;;5058069;28;20060;-80
2021/08/17 01:43:19;;;;;;;14.48;3.00;;;13.80;99.90;;;;;;5041767;28;20037;-80
2021/08/17 01:45:56;;;;;;;15.55;2.90;;;13.60;99.90;;;;;;5041534;28;20128;-80
2021/08/17 01:48:29;;;;;;;21.20;3.17;;;13.70;99.90;;;;;;5042161;28;20104;-80
2021/08/17 01:50:55;;;;;;;25.90;3.40;;;13.60;99.90;;;;;;5057866;28;20040;-80
2021/08/17 01:53:23;;;;;;;20.55;3.45;;;13.60;99.90;;;;;;5038532;28;20441;-80
2021/08/17 01:55:51;;;;;;;22.80;3.25;;;13.70;99.90;;;;;;5057498;28;20044;-80
2021/08/17 01:58:16;;;;;;;21.42;3.58;;;13.80;99.90;;;;;;5039409;28;20456;-80
2021/08/17 02:00:44;;;;;;;14.10;2.67;;;13.60;99.90;;;;;;5042134;28;20025;-81
2021/08/17 02:03:10;;;;;;;16.25;3.05;;;13.70;99.90;;;;;;5042721;28;20065;-80
2021/08/17 02:05:36;;;;;;;19.55;2.92;;;13.70;99.90;;;;;;5037350;28;20072;-80
2021/08/17 02:08:03;;;;;;;15.60;3.08;;;13.70;99.90;;;;;;5039545;28;20049;-80
2021/08/17 02:10:29;;;;;;;21.90;2.83;;;13.80;99.90;;;;;;5058119;28;20045;-80
2021/08/17 02:12:54;;;;;;;16.48;3.00;;;13.70;99.90;;;;;;5042463;28;20033;-80
2021/08/17 02:15:20;;;;;;;18.50;2.70;;;13.80;99.90;;;;;;5041235;28;20070;-80
2021/08/17 02:17:46;;;;;;;15.70;2.90;;;13.80;99.90;;;;;;5040413;28;20042;-81
2021/08/17 02:20:12;;;;;;;20.20;2.95;;;13.80;99.90;;;;;;5040950;28;20144;-80
2021/08/17 02:22:38;;;;;;;16.95;3.15;;;13.90;99.90;;;;;;5044044;28;20041;-80
2021/08/17 02:25:05;;;;;;;21.13;3.30;;;14.00;99.90;;;;;;5039985;28;20068;-80
2021/08/17 02:27:35;;;;;;;16.58;2.63;;;14.00;99.90;;;;;;5041017;28;20479;-80
2021/08/17 02:30:02;;;;;;;18.13;3.10;;;14.00;99.90;;;;;;5040780;28;20043;-80
2021/08/17 02:32:28;;;;;;;16.48;3.25;;;14.00;99.90;;;;;;5039134;28;20045;-80
2021/08/17 02:34:54;;;;;;;20.88;3.40;;;13.90;99.90;;;;;;5043554;28;20060;-81
2021/08/17 02:37:20;;;;;;;17.50;2.90;;;13.90;99.90;;;;;;5040347;28;20511;-80
2021/08/17 02:39:45;;;;;;;20.00;3.42;;;13.90;99.90;;;;;;5038094;28;20427;-80
2021/08/17 02:42:11;;;;;;;20.90;3.17;;;13.90;99.90;;;;;;5040283;28;20061;-79
2021/08/17 02:44:37;;;;;;;12.40;2.80;;;13.90;99.90;;;;;;5042063;28;20116;-80
2021/08/17 02:47:03;;;;;;;21.73;2.90;;;13.90;99.90;;;;;;5042369;28;20041;-79
2021/08/17 02:49:32;;;;;;;25.05;3.40;;;13.90;99.90;;;;;;5038310;28;20511;-79
2021/08/17 02:52:04;;;;;;;14.75;2.92;;;13.90;99.90;;;;;;5036824;28;20033;-79
2021/08/17 02:54:40;;;;;;;15.85;2.83;;;13.80;99.90;;;;;;5050229;28;20424;-80
2021/08/17 02:57:09;;;;;;;17.20;3.00;;;14.00;99.90;;;;;;5038413;28;20108;-79
2021/08/17 02:59:35;;;;;;;18.13;2.83;;;14.00;99.90;;;;;;5040502;28;20033;-79
2021/08/17 03:02:02;;;;;;;18.48;2.67;;;14.00;99.90;;;;;;5042458;28;20166;-80
2021/08/17 03:04:28;;;;;;;18.63;2.88;;;14.00;99.90;;;;;;5039444;28;20175;-80
2021/08/17 03:06:55;;;;;;;14.63;2.65;;;14.10;99.90;;;;;;5037802;28;20116;-80
2021/08/17 03:09:21;;;;;;;17.00;2.88;;;14.20;99.90;;;;;;5052422;28;20049;-80
2021/08/17 03:11:47;;;;;;;15.23;2.65;;;14.10;99.90;;;;;;5039599;28;20109;-79
2021/08/17 03:14:13;;;;;;;18.10;2.78;;;13.90;99.90;;;;;;5038998;28;20061;-79
2021/08/17 03:16:39;;;;;;;18.48;2.75;;;13.90;99.90;;;;;;5039056;28;20048;-79
2021/08/17 03:19:05;;;;;;;13.68;2.67;;;13.90;99.90;;;;;;5043142;28;20052;-79
2021/08/17 03:21:32;;;;;;;13.43;2.65;;;13.90;99.90;;;;;;5038633;28;20356;-80
2021/08/17 03:23:58;;;;;;;16.48;2.60;;;13.90;99.90;;;;;;5039296;28;20048;-80
2021/08/17 03:26:24;;;;;;;17.95;2.92;;;13.90;99.90;;;;;;5040480;28;20124;-80
2021/08/17 03:28:50;;;;;;;16.45;2.97;;;13.80;99.90;;;;;;5039960;28;20049;-80
2021/08/17 03:31:16;;;;;;;11.38;2.20;;;13.90;99.90;;;;;;5051793;28;20045;-80
2021/08/17 03:33:45;;;;;;;16.35;2.67;;;13.80;99.90;;;;;;5039668;28;20186;-80
2021/08/17 03:36:11;;;;;;;16.55;2.72;;;13.80;99.90;;;;;;5038152;28;20125;-79
2021/08/17 03:38:37;;;;;;;17.27;2.40;;;13.80;99.90;;;;;;5040837;28;20124;-79
2021/08/17 03:41:03;;;;;;;12.95;2.25;;;13.80;99.90;;;;;;5041132;28;20037;-80
2021/08/17 03:43:30;;;;;;;19.67;3.20;;;13.70;99.90;;;;;;5039375;28;20036;-80
2021/08/17 03:45:56;;;;;;;12.35;2.05;;;13.60;99.90;;;;;;5039553;28;20037;-80
2021/08/17 03:48:22;;;;;;;13.65;2.75;;;13.60;99.90;;;;;;5041791;28;20049;-80
2021/08/17 03:50:48;;;;;;;18.67;2.60;;;13.60;99.90;;;;;;5038232;28;20067;-80
2021/08/17 03:53:15;;;;;;;22.23;2.50;;;13.60;99.90;;;;;;5039475;28;20041;-80
2021/08/17 03:55:41;;;;;;;15.50;2.47;;;13.50;99.90;;;;;;5038827;28;20043;-80
2021/08/17 03:58:07;;;;;;;16.05;2.67;;;13.50;99.90;;;;;;5039753;28;20036;-80
2021/08/17 04:00:33;;;;;;;19.00;3.38;;;13.50;99.90;;;;;;5040172;28;20035;-80
2021/08/17 04:02:59;;;;;;;18.88;2.42;;;13.40;99.90;;;;;;5023243;28;20036;-79
2021/08/17 04:05:26;;;;;;;12.90;2.75;;;13.30;99.90;;;;;;5038990;28;20390;-79
2021/08/17 04:07:52;;;;;;;17.27;2.70;;;13.50;99.90;;;;;;5037377;28;21086;-79
2021/08/17 04:10:19;;;;;;;19.30;2.95;;;13.20;99.90;;;;;;5054973;28;20499;-80
2021/08/17 04:12:45;;;;;;;12.70;2.33;;;13.40;99.90;;;;;;5039212;28;20091;-79
2021/08/17 04:15:12;;;;;;;12.43;2.50;;;13.40;99.90;;;;;;5037430;28;20068;-79
2021/08/17 04:17:38;;;;;;;18.25;3.15;;;13.40;99.90;;;;;;5038301;28;20037;-80
2021/08/17 04:20:06;;;;;;;13.82;2.30;;;13.30;99.90;;;;;;5039067;28;20048;-79
2021/08/17 04:22:31;;;;;;;17.20;3.03;;;13.40;99.90;;;;;;5039581;28;20029;-79
2021/08/17 04:24:58;;;;;;;13.43;3.05;;;13.50;99.90;;;;;;5037728;28;20060;-80
2021/08/17 04:27:24;;;;;;;15.13;3.22;;;13.50;99.90;;;;;;5039659;28;20541;-80
2021/08/17 04:29:50;;;;;;;18.92;2.97;;;13.40;99.90;;;;;;5054821;28;20144;-80
2021/08/17 04:32:15;;;;;;;16.83;2.85;;;13.40;99.90;;;;;;5040186;28;20183;-79
2021/08/17 04:34:41;;;;;;;15.95;3.05;;;13.60;99.90;;;;;;5037930;28;20486;-79
2021/08/17 04:37:07;;;;;;;21.23;3.17;;;13.50;99.90;;;;;;5037289;28;20041;-80
2021/08/17 04:39:34;;;;;;;18.73;2.58;;;13.50;99.90;;;;;;5037269;28;20440;-79
2021/08/17 04:42:00;;;;;;;14.48;2.80;;;13.60;99.90;;;;;;5053665;28;20044;-80
2021/08/17 04:44:26;;;;;;;17.20;2.83;;;13.60;99.90;;;;;;5047051;28;20033;-80
2021/08/17 04:46:52;;;;;;;17.10;3.00;;;13.70;99.90;;;;;;5042143;28;20132;-80
2021/08/17 04:49:18;;;;;;;16.08;2.72;;;13.70;99.90;;;;;;5055946;28;20059;-80
2021/08/17 04:51:44;;;;;;;21.15;2.83;;;13.70;99.90;;;;;;5043605;28;20041;-80
2021/08/17 04:54:10;;;;;;;18.13;3.33;;;13.80;99.90;;;;;;5045471;28;20037;-80
2021/08/17 04:56:36;;;;;;;18.27;3.10;;;13.90;99.90;;;;;;5047869;28;20522;-85
2021/08/17 04:59:02;;;;;;;14.88;3.40;;;14.00;99.90;;;;;;5044925;28;20459;-84
2021/08/17 05:01:28;;;;;;;14.45;3.40;;;14.20;99.90;;;;;;5042471;28;20036;-83
2021/08/17 05:03:54;;;;;;;13.68;2.97;;;14.20;99.90;;;;;;5059211;28;20056;-81
2021/08/17 05:06:20;;;;;;;15.45;3.40;;;14.30;99.90;;;;;;5049045;28;20127;-80
2021/08/17 05:08:45;;;;;;;14.20;3.40;;;14.30;99.90;;;;;;5042360;28;20095;-80
2021/08/17 05:11:12;;;;;;;12.20;3.15;;;14.40;99.90;;;;;;5021921;28;20045;-80
2021/08/17 05:13:37;;;;;;;16.90;3.90;;;14.50;99.90;;;;;;5043029;28;20042;-80
2021/08/17 05:16:04;;;;;;;10.68;3.13;;;14.50;99.90;;;;;;5045309;28;20047;-79
2021/08/17 05:18:32;;;;;;;22.60;3.72;;;14.50;99.90;;;;;;5050049;28;20033;-79
2021/08/17 05:21:02;;;;;;;14.68;3.80;;;14.60;99.90;;;;;;5060636;28;20036;-79
2021/08/17 05:23:29;;;;;;;20.63;4.30;;;14.60;99.90;;;;;;5056497;28;20044;-80
2021/08/17 05:25:55;;;;;;;20.92;3.60;;;14.60;99.90;;;;;;5058941;28;20044;-81
2021/08/17 05:28:22;;;;;;;18.73;4.05;;;14.60;99.90;;;;;;5041654;28;20170;-81
2021/08/17 05:30:49;;;;;;;18.38;4.40;;;14.60;99.90;;;;;;5047083;28;20392;-82
2021/08/17 05:33:15;;;;;;;17.33;3.67;;;14.70;99.90;;;;;;5048625;28;20186;-81
2021/08/17 05:35:43;;;;;;;16.83;3.90;;;14.60;99.90;;;;;;5041966;28;20112;-81
2021/08/17 05:38:10;;;;;;;21.25;4.75;;;14.70;99.90;;;;;;5047477;28;20049;-81
2021/08/17 05:40:36;;;;;;;18.50;4.03;;;14.80;99.90;;;;;;5041853;28;20091;-78
2021/08/17 05:43:03;;;;;;;24.73;5.05;;;14.80;99.90;;;;;;5045641;28;20388;-78
2021/08/17 05:45:30;;;;;;;24.38;5.05;;;14.80;99.90;;;;;;5047210;28;20037;-80
2021/08/17 05:47:56;;;;;;;23.70;4.75;;;14.90;99.90;;;;;;5046253;28;20439;-81
2021/08/17 05:50:21;;;;;;;23.40;5.35;;;14.90;99.90;;;;;;5048633;28;20040;-80
2021/08/17 05:52:48;;;;;;;23.15;5.18;;;15.00;99.90;;;;;;5046604;28;20035;-79
2021/08/17 05:55:14;;;;;;;17.50;5.07;;;15.10;99.90;;;;;;5041283;28;20038;-77
2021/08/17 05:57:39;;;;;;;19.33;5.30;;;15.00;99.90;;;;;;5044152;28;20069;-77
2021/08/17 06:00:08;;;;;;;21.63;5.97;;;14.90;99.90;;;;;;5044970;28;20119;-79
2021/08/17 06:02:34;;;;;;;19.42;5.50;;;14.90;99.90;;;;;;5043205;28;20033;-77
2021/08/17 06:05:00;;;;;;;19.60;5.40;;;14.80;99.90;;;;;;5061839;28;20059;-79
2021/08/17 06:07:28;;;;;;;13.38;4.93;;;14.80;99.90;;;;;;5047891;28;20033;-79
2021/08/17 06:09:54;;;;;;;19.95;4.95;;;14.90;99.90;;;;;;5042814;28;20344;-78
2021/08/17 06:12:20;;;;;;;19.88;5.57;;;14.80;99.90;;;;;;5059949;28;20076;-80
2021/08/17 06:14:45;;;;;;;21.13;5.55;;;15.00;99.90;;;;;;5041939;28;20043;-79
2021/08/17 06:17:11;;;;;;;22.67;5.75;;;15.10;99.90;;;;;;5054337;28;20468;-78
2021/08/17 06:19:37;;;;;;;22.15;6.15;;;15.20;99.90;;;;;;5043567;28;20029;-78
2021/08/17 06:22:03;;;;;;;20.13;5.53;;;15.30;99.90;;;;;;5042920;28;20041;-78
2021/08/17 06:24:29;;;;;;;29.75;5.97;;;15.40;99.90;;;;;;5051300;28;20032;-78
2021/08/17 06:26:54;;;;;;;18.20;5.63;;;15.40;99.90;;;;;;5047147;28;20812;-77
2021/08/17 06:29:20;;;;;;;22.13;5.70;;;15.40;99.90;;;;;;5057873;28;20037;-82
2021/08/17 06:31:46;;;;;;;19.88;4.70;;;15.40;99.90;;;;;;5043664;28;20150;-81
2021/08/17 06:34:12;;;;;;;18.45;5.13;;;15.30;99.90;;;;;;5043669;28;20479;-79
2021/08/17 06:36:39;;;;;;;12.73;4.30;;;15.30;99.90;;;;;;5017100;28;20076;-78
2021/08/17 06:39:06;;;;;;;16.42;5.25;;;15.30;99.90;;;;;;5054597;28;20053;-80
2021/08/17 06:41:33;;;;;;;16.95;5.00;;;15.30;99.90;;;;;;5037379;28;20038;-77
2021/08/17 06:44:00;;;;;;;22.65;6.00;;;15.30;99.90;;;;;;5044762;28;20093;-79
2021/08/17 06:46:27;;;;;;;20.08;5.70;;;15.30;99.90;;;;;;5060836;28;20041;-80
2021/08/17 06:48:53;;;;;;;20.80;5.00;;;15.30;99.90;;;;;;5059696;28;20107;-77
2021/08/17 06:51:19;;;;;;;16.48;5.25;;;15.40;99.90;;;;;;5043361;28;20052;-78
2021/08/17 06:53:45;;;;;;;13.07;4.65;;;15.40;99.90;;;;;;5058033;28;20063;-80
2021/08/17 06:56:12;;;;;;;13.23;4.03;;;15.50;99.90;;;;;;5042078;28;20075;-80
2021/08/17 06:58:38;;;;;;;15.05;5.10;;;15.60;99.90;;;;;;5042691;28;20082;-80
2021/08/17 07:01:04;;;;;;;18.50;4.65;;;15.60;99.90;;;;;;5039166;28;20037;-82
2021/08/17 07:03:30;;;;;;;16.52;4.43;;;15.60;99.90;;;;;;5040009;28;20106;-80
2021/08/17 07:05:56;;;;;;;12.63;5.28;;;15.80;99.90;;;;;;5045720;28;20063;-81
2021/08/17 07:08:22;;;;;;;9.02;3.75;;;15.90;99.90;;;;;;5038392;28;20037;-81
2021/08/17 07:10:48;;;;;;;14.52;4.30;;;16.00;99.90;;;;;;5050486;28;20082;-81
2021/08/17 07:13:14;;;;;;;14.82;4.30;;;16.10;99.90;;;;;;5041468;28;20357;-81
2021/08/17 07:15:40;;;;;;;9.75;4.07;;;16.20;99.90;;;;;;5044835;28;20037;-81
2021/08/17 07:18:06;;;;;;;14.50;4.30;;;16.30;99.90;;;;;;5045987;28;20090;-76
2021/08/17 07:20:32;;;;;;;14.35;4.55;;;16.40;99.90;;;;;;5054639;28;20040;-80
2021/08/17 07:22:58;;;;;;;13.60;3.85;;;16.40;99.90;;;;;;5056489;28;20033;-77
2021/08/17 07:25:24;;;;;;;12.88;4.40;;;16.50;99.90;;;;;;5058930;28;20053;-79
2021/08/17 07:27:50;;;;;;;16.00;4.68;;;16.60;99.90;;;;;;5054011;28;20469;-78
2021/08/17 07:30:16;;;;;;;8.27;4.22;;;16.60;99.90;;;;;;5042545;28;20037;-80
2021/08/17 07:32:43;;;;;;;14.38;4.38;;;16.60;99.90;;;;;;5049072;28;20045;-79
2021/08/17 07:35:10;;;;;;;11.20;4.25;;;16.60;99.90;;;;;;5054928;28;20076;-79
2021/08/17 07:37:38;;;;;;;13.63;4.63;;;16.70;99.90;;;;;;5044186;28;20140;-78
2021/08/17 07:40:05;;;;;;;12.15;4.28;;;16.70;99.90;;;;;;5043699;28;20039;-79
2021/08/17 07:42:31;;;;;;;12.52;4.32;;;16.70;99.90;;;;;;5036794;28;20084;-77
2021/08/17 07:44:57;;;;;;;12.70;3.95;;;16.70;99.90;;;;;;5043054;28;20447;-77
2021/08/17 07:47:23;;;;;;;11.55;4.90;;;16.80;99.90;;;;;;5047144;28;20033;-79
2021/08/17 07:49:49;;;;;;;12.57;4.32;;;16.80;99.90;;;;;;5058189;28;20036;-77
2021/08/17 07:52:15;;;;;;;11.32;4.50;;;16.80;99.90;;;;;;5043307;28;22040;-80
2021/08/17 07:54:41;;;;;;;15.88;4.80;;;16.90;99.90;;;;;;5060077;28;20048;-80
2021/08/17 07:57:07;;;;;;;21.30;4.80;;;16.90;99.90;;;;;;5056635;28;20048;-79
2021/08/17 07:59:33;;;;;;;17.90;4.90;;;16.80;99.90;;;;;;5043023;28;20029;-79
2021/08/17 08:01:59;;;;;;;19.15;5.20;;;16.80;99.90;;;;;;5055996;28;20424;-80
2021/08/17 08:04:24;;;;;;;13.48;4.68;;;16.90;99.90;;;;;;5032184;28;20059;-80
2021/08/17 08:06:50;;;;;;;13.10;5.07;;;16.90;99.90;;;;;;5047220;28;20056;-80
2021/08/17 08:09:16;;;;;;;15.73;4.80;;;16.90;99.90;;;;;;5048913;28;20033;-80
2021/08/17 08:11:43;;;;;;;14.75;4.55;;;17.00;99.90;;;;;;5057865;28;20466;-78
2021/08/17 08:14:09;;;;;;;16.25;4.85;;;17.00;99.90;;;;;;5065511;28;20048;-77
2021/08/17 08:16:35;;;;;;;19.27;5.25;;;16.90;99.90;;;;;;5054336;28;20361;-76
2021/08/17 08:19:02;;;;;;;14.05;4.30;;;16.90;99.90;;;;;;5045291;28;20423;-80
2021/08/17 08:21:28;;;;;;;14.13;5.05;;;16.90;99.90;;;;;;5042771;28;20055;-80
2021/08/17 08:23:54;;;;;;;12.40;4.50;;;16.90;99.90;;;;;;5060245;28;20651;-80
2021/08/17 08:26:20;;;;;;;13.15;5.10;;;16.80;99.90;;;;;;5041858;28;20035;-82
2021/08/17 08:28:45;;;;;;;19.65;5.85;;;16.90;99.90;;;;;;5062854;28;20120;-80
2021/08/17 08:31:11;;;;;;;14.60;5.22;;;16.80;99.90;;;;;;5047685;28;20057;-82
2021/08/17 08:33:37;;;;;;;15.85;5.43;;;16.80;99.90;;;;;;5042694;28;20029;-80
2021/08/17 08:36:03;;;;;;;21.13;6.10;;;16.90;99.90;;;;;;5053984;28;20057;-81
2021/08/17 08:38:29;;;;;;;11.35;4.93;;;16.90;99.90;;;;;;5048750;28;20438;-77
2021/08/17 08:40:55;;;;;;;19.83;6.05;;;17.00;99.90;;;;;;5037027;28;20040;-81
2021/08/17 08:43:22;;;;;;;19.58;6.28;;;17.20;99.90;;;;;;5045995;28;20071;-75
2021/08/17 08:45:48;;;;;;;22.80;6.40;;;17.20;99.90;;;;;;5057620;28;20435;-78
2021/08/17 08:48:15;;;;;;;21.58;6.60;;;17.30;99.90;;;;;;5039385;28;20083;-79
2021/08/17 08:50:43;;;;;;;17.40;6.80;;;17.50;99.90;;;;;;5042010;28;20140;-78
2021/08/17 08:53:11;;;;;;;23.98;6.68;;;17.60;99.90;;;;;;5041030;28;20047;-79
2021/08/17 08:55:37;;;;;;;18.80;6.60;;;17.70;99.90;;;;;;5053332;28;20037;-79
2021/08/17 08:58:03;;;;;;;17.92;6.07;;;17.90;99.90;;;;;;5044549;28;20041;-77
2021/08/17 09:00:29;;;;;;;18.98;6.97;;;17.80;99.90;;;;;;5067389;28;20032;-77
2021/08/17 09:02:54;;;;;;;19.35;7.00;;;17.80;99.90;;;;;;5049262;28;20041;-80
2021/08/17 09:05:23;;;;;;;15.98;6.10;;;17.90;99.90;;;;;;5050033;28;20057;-82
2021/08/17 09:07:50;;;;;;;19.15;7.28;;;18.00;99.90;;;;;;5051142;28;20028;-78
2021/08/17 09:10:19;;;;;;;17.15;7.72;;;18.00;99.90;;;;;;5041422;28;20041;-80
2021/08/17 09:12:46;;;;;;;25.20;7.60;;;18.10;99.90;;;;;;5045139;28;20083;-78
2021/08/17 09:15:16;;;;;;;17.30;7.60;;;18.10;99.90;;;;;;5030451;28;20112;-78
2021/08/17 09:17:42;;;;;;;20.15;7.70;;;18.00;99.90;;;;;;5032836;28;20096;-79
2021/08/17 09:20:33;;;;;;;22.08;7.72;;;18.20;99.90;;;;;;5042413;28;20477;-77
2021/08/17 09:23:21;;;;;;;19.05;7.95;;;18.30;99.90;;;;;;5056245;28;20045;-77
2021/08/17 09:25:47;;;;;;;19.30;7.85;;;18.30;99.90;;;;;;5058192;28;20044;-79
2021/08/17 09:28:25;;;;;;;23.70;8.60;;;18.50;99.90;;;;;;5058401;28;20040;-79
2021/08/17 09:30:51;;;;;;;22.65;7.20;;;18.70;99.90;;;;;;5071422;28;20055;-78
2021/08/17 09:33:17;;;;;;;16.60;7.90;;;18.70;99.90;;;;;;5054144;28;20041;-78
2021/08/17 09:35:43;;;;;;;19.42;7.93;;;18.80;99.90;;;;;;5052991;28;20056;-80
2021/08/17 09:38:12;;;;;;;22.05;9.02;;;18.80;99.90;;;;;;5055318;28;20051;-80
2021/08/17 09:40:38;;;;;;;17.40;8.40;;;18.60;99.90;;;;;;5052563;28;20064;-82
2021/08/17 09:43:18;;;;;;;16.65;8.10;;;18.60;99.90;;;;;;5033937;28;20140;-80
2021/08/17 09:45:46;;;;;;;17.33;8.52;;;18.40;99.90;;;;;;5064786;28;20140;-83
2021/08/17 09:48:13;;;;;;;21.60;9.07;;;18.30;99.90;;;;;;5019901;28;20045;-79
2021/08/17 09:50:42;;;;;;;23.80;8.73;;;18.30;99.90;;;;;;5060342;28;20098;-78
2021/08/17 09:53:20;;;;;;;16.00;8.95;;;18.40;99.90;;;;;;5056747;28;20145;-83
2021/08/17 09:55:48;;;;;;;19.48;8.93;;;18.40;99.90;;;;;;5043302;28;20439;-80
2021/08/17 09:58:19;;;;;;;18.27;9.07;;;18.50;99.90;;;;;;5040427;28;20033;-80
2021/08/17 10:00:50;;;;;;;24.52;9.27;;;18.50;99.90;;;;;;5039671;28;20026;-78
2021/08/17 10:03:18;;;;;;;19.92;9.57;;;18.40;99.90;;;;;;5047603;28;20049;-81
2021/08/17 10:05:44;;;;;;;19.52;8.52;;;18.30;99.90;;;;;;5049627;28;20041;-80
2021/08/17 10:08:12;;;;;;;16.13;8.07;;;18.30;99.90;;;;;;5050231;28;20103;-80
2021/08/17 10:10:42;;;;;;;27.08;8.77;;;18.40;99.90;;;;;;5061763;28;20037;-82
2021/08/17 10:13:13;;;;;;;22.05;8.50;;;18.40;99.90;;;;;;5045427;28;20033;-81
2021/08/17 10:15:39;;;;;;;16.92;8.02;;;18.40;99.90;;;;;;5052511;28;20043;-83
2021/08/17 10:18:07;;;;;;;18.08;8.65;;;18.40;99.90;;;;;;5047029;28;20473;-85
2021/08/17 10:20:34;;;;;;;20.98;8.45;;;18.40;99.90;;;;;;5044506;28;20391;-79
2021/08/17 10:23:00;;;;;;;19.98;8.05;;;18.30;99.90;;;;;;5035452;28;20057;-81
2021/08/17 10:25:26;;;;;;;19.98;8.45;;;18.30;99.90;;;;;;5047401;28;20044;-78
2021/08/17 10:27:52;;;;;;;17.90;8.10;;;18.40;99.90;;;;;;5059442;28;20412;-80
2021/08/17 10:30:22;;;;;;;21.33;7.95;;;18.50;99.90;;;;;;5036551;28;20081;-82
2021/08/17 10:32:51;;;;;;;16.10;7.78;;;18.80;99.90;;;;;;5038860;28;20056;-79
2021/08/17 10:35:48;;;;;;;18.77;8.23;;;19.00;99.90;;;;;;5047465;28;20067;-80
2021/08/17 10:38:13;;;;;;;17.35;7.93;;;19.10;99.90;;;;;;5060263;28;20499;-78
2021/08/17 10:40:51;;;;;;;19.30;9.02;;;19.30;99.90;;;;;;5043658;28;20041;-80
2021/08/17 10:43:20;;;;;;;16.67;7.60;;;19.50;99.90;;;;;;5023622;28;20036;-78
2021/08/17 10:45:51;;;;;;;17.73;7.90;;;19.70;99.90;;;;;;5035449;28;20123;-79
2021/08/17 10:48:48;;;;;;;15.25;7.22;;;19.80;99.90;;;;;;5056875;28;20094;-79
2021/08/17 10:51:20;;;;;;;13.65;6.95;;;20.00;99.90;;;;;;4971333;28;20047;-81
2021/08/17 10:53:51;;;;;;;15.73;7.75;;;20.00;99.90;;;;;;4970867;28;20050;-80
2021/08/17 10:56:22;;;;;;;14.55;7.20;;;19.90;99.90;;;;;;4955350;28;20075;-78
2021/08/17 10:58:53;;;;;;;16.13;7.30;;;19.50;99.90;;;;;;4970754;28;20042;-78
2021/08/17 11:01:31;;;;;;;12.77;6.60;;;19.50;99.90;;;;;;4956851;28;20046;-79
2021/08/17 11:04:01;;;;;;;14.45;7.40;;;19.30;99.90;;;;;;4954767;28;20117;-80
2021/08/17 11:06:49;;;;;;;13.73;6.80;;;19.30;99.90;;;;;;4971683;28;20463;-77
2021/08/17 11:09:19;;;;;;;13.82;8.00;;;19.10;99.90;;;;;;4955277;28;20050;-78
2021/08/17 11:12:06;;;;;;;16.65;7.75;;;19.10;99.90;;;;;;4970115;28;20043;-80
2021/08/17 11:14:35;;;;;;;19.17;8.15;;;19.10;99.90;;;;;;4968334;28;20101;-78
2021/08/17 11:17:09;;;;;;;22.52;7.75;;;19.10;99.90;;;;;;4963574;28;20043;-78
2021/08/17 11:19:37;;;;;;;15.63;7.60;;;19.10;99.90;;;;;;4968092;28;20077;-78
2021/08/17 11:22:10;;;;;;;15.45;7.05;;;18.90;99.90;;;;;;4957615;28;20050;-82
2021/08/17 11:24:38;;;;;;;16.52;7.15;;;18.90;99.90;;;;;;4948424;28;20048;-76
2021/08/17 11:27:08;;;;;;;19.13;7.05;;;18.60;99.90;;;;;;4957869;28;20051;-79
2021/08/17 11:29:41;;;;;;;14.20;7.15;;;18.60;99.90;;;;;;5043361;28;20116;-80
2021/08/17 11:32:13;;;;;;;15.57;7.25;;;18.70;99.90;;;;;;5038977;28;20420;-81
2021/08/17 11:34:40;;;;;;;15.40;7.30;;;18.60;99.90;;;;;;5051962;28;20037;-77
2021/08/17 11:37:10;;;;;;;13.35;6.43;;;18.60;99.90;;;;;;5037979;28;20054;-81
2021/08/17 11:39:41;;;;;;;13.32;6.40;;;18.60;99.90;;;;;;5031175;28;20091;-77
2021/08/17 11:42:13;;;;;;;11.35;5.65;;;18.60;99.90;;;;;;5039704;28;20497;-77
2021/08/17 11:44:39;;;;;;;11.18;5.50;;;18.50;99.90;;;;;;5070226;28;20074;-81
2021/08/17 11:47:12;;;;;;;14.68;5.68;;;18.50;99.90;;;;;;5054492;28;20033;-76
2021/08/17 11:49:38;;;;;;;19.35;6.57;;;18.40;99.90;;;;;;5051297;28;20037;-79
2021/08/17 11:52:16;;;;;;;12.90;5.97;;;18.40;99.90;;;;;;5066065;28;20059;-78
2021/08/17 11:54:47;;;;;;;17.23;6.32;;;18.40;99.90;;;;;;5060918;28;20041;-80
2021/08/17 11:57:18;;;;;;;12.80;6.10;;;18.40;99.90;;;;;;5056633;28;20466;-81
2021/08/17 11:59:46;;;;;;;16.58;5.97;;;18.50;99.90;;;;;;5042211;28;20162;-82
2021/08/17 12:02:20;;;;;;;16.75;5.63;;;18.50;99.90;;;;;;5050606;28;20040;-79
2021/08/17 12:05:02;;;;;;;13.45;5.95;;;18.50;99.90;;;;;;5051466;28;20376;-76
2021/08/17 12:07:30;;;;;;;13.32;6.00;;;18.50;99.90;;;;;;5055277;28;20111;-80
2021/08/17 12:10:16;;;;;;;12.20;5.50;;;18.50;99.90;;;;;;5037663;28;20132;-79
2021/08/17 12:13:13;;;;;;;14.75;5.78;;;18.50;99.90;;;;;;5071545;28;20409;-77
2021/08/17 12:15:40;;;;;;;15.32;5.63;;;18.40;99.90;;;;;;5059564;28;20515;-81
2021/08/17 12:18:18;;;;;;;10.93;5.00;;;18.40;99.90;;;;;;5052515;28;20045;-79
2021/08/17 12:20:43;;;;;;;9.23;5.10;;;18.40;99.90;;;;;;5048405;28;20029;-78
2021/08/17 12:23:15;;;;;;;12.40;5.53;;;18.40;99.90;;;;;;5049089;28;20797;-79
2021/08/17 12:25:41;;;;;;;13.55;5.25;;;18.50;99.90;;;;;;5054049;28;20053;-81
2021/08/17 12:28:07;;;;;;;14.40;4.90;;;18.60;99.90;;;;;;5059071;28;20041;-78
2021/08/17 12:30:34;;;;;;;8.95;4.57;;;18.50;99.90;;;;;;5045999;28;20195;-78
2021/08/17 12:33:01;;;;;;;11.63;5.03;;;18.60;99.90;;;;;;5045922;28;20035;-81
2021/08/17 12:35:28;;;;;;;10.30;4.65;;;18.80;99.90;;;;;;5046070;28;20046;-79
2021/08/17 12:37:54;;;;;;;11.02;5.55;;;18.90;99.90;;;;;;5041299;28;20036;-78
2021/08/17 12:40:20;;;;;;;11.55;5.13;;;19.00;99.90;;;;;;5048372;28;20032;-78
2021/08/17 12:42:46;;;;;;;10.25;4.90;;;19.00;99.90;;;;;;5048526;28;20106;-78